New Mighty — 3FMN — position and weather

sailwx.info

Track history (hours):
 
Tides and Currents Weather Stations Pressure Air Temp Water Temp Dewpoint Dewpoint Depression Visibility Wind Speed Wind Dir Waves Ship Positions

New Mighty

Last reported at 2016-Mar-28 23:33 UTC. Time now 2016-May-02 23:11 UTC.
Position S 19°00' E 117°33'.
Warning: this ship's position is 34 days out of date.

Length 292 m; draft 16.3 m.

Type: Cargo ship. MMSI: 354199000.

Date/timePositionNaut miles runAvg speedWind from/ knotsBaromVisibWave heightAir tempDewpointWater temp
2016-Mar-28 23:33S 19°00' E 117°33'3712.1
2016-Mar-28 20:30S 19°32' E 117°13'1212.4
2016-Mar-28 19:30S 19°43' E 117°07'1212.3
2016-Mar-28 18:33S 19°53' E 117°00'1211.9
2016-Mar-28 17:33S 20°03' E 116°54'1211.8
2016-Mar-28 16:32S 20°14' E 116°47'2410.5
2016-Mar-28 14:13S 20°37' E 116°41'2 0.1
2016-Mar-27 09:32S 20°39' E 116°40'8 8.3
2016-Mar-27 08:33S 20°31' E 116°43'8 7.4
2016-Mar-27 07:32S 20°23' E 116°42'6 1.0
2016-Mar-27 01:25S 20°23' E 116°36'0 0.0
2016-Mar-27 00:07S 20°23' E 116°36'0 0.1
2016-Mar-26 22:31S 20°23' E 116°36'0 0.0
2016-Mar-26 19:19S 20°23' E 116°36'0 0.1
2016-Mar-26 18:19S 20°23' E 116°36'0 0.0
2016-Mar-26 17:19S 20°23' E 116°36'0 0.0
2016-Mar-26 15:31S 20°23' E 116°36'0 0.1
2016-Mar-26 14:32S 20°23' E 116°36'3 3.5
2016-Mar-26 13:33S 20°22' E 116°39'1212.2
2016-Mar-26 12:33S 20°11' E 116°44'1413.5
2016-Mar-26 11:33S 19°58' E 116°49'1414.1
2016-Mar-26 10:32S 19°45' E 116°54'1313.1
2016-Mar-26 09:33S 19°32' E 116°58'1312.7
2016-Mar-26 08:33S 19°20' E 117°01'2612.8
2016-Mar-26 06:33S 18°56' E 117°10'1413.2
2016-Mar-26 05:31S 18°44' E 117°16'1612.9
2016-Mar-26 04:15S 18°29' E 117°24'39 4.0
2016-Mar-25 18:26S 17°50' E 117°28'6 2.0
2016-Mar-25 15:32S 17°48' E 117°23'2 1.6
2016-Mar-25 14:32S 17°47' E 117°21'3 1.3
2016-Mar-25 12:32S 17°46' E 117°18'1 0.9
2016-Mar-25 11:32S 17°46' E 117°18'1 0.5
2016-Mar-25 10:08S 17°46' E 117°17'24 1.2
2016-Mar-24 14:08S 17°54' E 116°53'  
Track history (hours):
 
Tides and Currents Weather Stations Pressure Air Temp Water Temp Dewpoint Dewpoint Depression Visibility Wind Speed Wind Dir Waves Ship Positions

New Mighty

Last reported at 2016-Mar-28 23:33 UTC. Time now 2016-May-02 23:11 UTC.
Position S 19°00' E 117°33'.
Warning: this ship's position is 34 days out of date.

Length 292 m; draft 16.3 m.

Type: Cargo ship. MMSI: 354199000.

Date/timePositionNaut miles runAvg speedWind from/ knotsBaromVisibWave heightAir tempDewpointWater temp
2016-Mar-28 23:33S 19°00' E 117°33'3712.1
2016-Mar-28 20:30S 19°32' E 117°13'1212.4
2016-Mar-28 19:30S 19°43' E 117°07'1212.3
2016-Mar-28 18:33S 19°53' E 117°00'1211.9
2016-Mar-28 17:33S 20°03' E 116°54'1211.8
2016-Mar-28 16:32S 20°14' E 116°47'2410.5
2016-Mar-28 14:13S 20°37' E 116°41'2 0.1
2016-Mar-27 09:32S 20°39' E 116°40'8 8.3
2016-Mar-27 08:33S 20°31' E 116°43'8 7.4
2016-Mar-27 07:32S 20°23' E 116°42'6 1.0
2016-Mar-27 01:25S 20°23' E 116°36'0 0.0
2016-Mar-27 00:07S 20°23' E 116°36'0 0.1
2016-Mar-26 22:31S 20°23' E 116°36'0 0.0
2016-Mar-26 19:19S 20°23' E 116°36'0 0.1
2016-Mar-26 18:19S 20°23' E 116°36'0 0.0
2016-Mar-26 17:19S 20°23' E 116°36'0 0.0
2016-Mar-26 15:31S 20°23' E 116°36'0 0.1
2016-Mar-26 14:32S 20°23' E 116°36'3 3.5
2016-Mar-26 13:33S 20°22' E 116°39'1212.2
2016-Mar-26 12:33S 20°11' E 116°44'1413.5
2016-Mar-26 11:33S 19°58' E 116°49'1414.1
2016-Mar-26 10:32S 19°45' E 116°54'1313.1
2016-Mar-26 09:33S 19°32' E 116°58'1312.7
2016-Mar-26 08:33S 19°20' E 117°01'2612.8
2016-Mar-26 06:33S 18°56' E 117°10'1413.2
2016-Mar-26 05:31S 18°44' E 117°16'1612.9
2016-Mar-26 04:15S 18°29' E 117°24'39 4.0
2016-Mar-25 18:26S 17°50' E 117°28'6 2.0
2016-Mar-25 15:32S 17°48' E 117°23'2 1.6
2016-Mar-25 14:32S 17°47' E 117°21'3 1.3
2016-Mar-25 12:32S 17°46' E 117°18'1 0.9
2016-Mar-25 11:32S 17°46' E 117°18'1 0.5
2016-Mar-25 10:08S 17°46' E 117°17'24 1.2
2016-Mar-24 14:08S 17°54' E 116°53'  

Dump ship's entire track history